Williston, ND (58801)

1:17 PM CST on December 10, 2016 (GMT -0600)
Johnson's weather | | Change Station

Elev 1916 ft 48.16 °N, 103.64 °W | Updated 3 seconds ago

Light Snow
Light Snow
-0.3 °F
Feels Like -12 °F
N
6.0
Wind Variable Wind from SSE
Gusts 6.0 mph

Today
High -- | Low -- °F
--% Chance of Precip.
Yesterday
High -- | Low -- °F
Precip. -- in
Pressure 30.07 in
Visibility 1.5 miles
Clouds Mostly Cloudy 4000 ft
Overcast 5000 ft
Windchill -12 °F
Dew Point -5 °F
Humidity 79%
Rainfall 0.00 in
Snow Depth Not available.
8:34 AM 5:00 PM
Waxing Gibbous, 85% visible
SPECI KISN 101909Z AUTO 12012KT 1 1/2SM -SN BKN040 OVC050 M17/M21 A3007 RMK AO2 P0000 T11721211 $
Pressure 30.07 in
Visibility 1.5 miles
Clouds Mostly Cloudy 4000 ft
Overcast 5000 ft
Windchill -12 °F
Dew Point -5 °F
Humidity 79%
Rainfall 0.00 in
Snow Depth Not available.
8:34 AM 5:00 PM
Waxing Gibbous, 85% visible
SPECI KISN 101909Z AUTO 12012KT 1 1/2SM -SN BKN040 OVC050 M17/M21 A3007 RMK AO2 P0000 T11721211 $

10-Day Weather Forecast

Almanac

Astronomy

Dec. 10, 2016 Rise Set
Actual Time
Civil Twilight
Nautical Twilight
Astronomical Twilight
Moon
Length of Visible Light
Length of Day
Tomorrow will be .
, % of the Moon is Illuminated

Today's Extremes

State Highs State Lows

Community

WunderPhotos

Upload Photos

1,956,627 photos uploaded!

WunderBlog® & News

Nearby

Air Quality

  Air Quality AQ Index Pollutant
Not available.

Snow Depth

Station Depth Elevation

Earthquake Activity

City Distance Mag. Time & Date
Minimum magnitude displayed is 2.5.

Coastal Water Temperatures

Place Temperature

Stations

Nearby Weather Stations

Station Location Temp. Windchill Dew Point Humidity Wind Precip. Elev Updated Type
                   

Watches & Warnings

There are currently no watches in effect.